sensor_id;sensor_type;location;lat;lon;timestamp;P1;durP1;ratioP1;P2;durP2;ratioP2
74064;SDS011;62421;51.412;5.432;2024-01-30T00:00:31;14.30;;;8.40;;
74064;SDS011;62421;51.412;5.432;2024-01-30T00:02:56;16.20;;;7.97;;
74064;SDS011;62421;51.412;5.432;2024-01-30T00:05:21;16.93;;;8.50;;
74064;SDS011;62421;51.412;5.432;2024-01-30T00:07:46;13.07;;;7.67;;
74064;SDS011;62421;51.412;5.432;2024-01-30T00:10:12;12.53;;;8.00;;
74064;SDS011;62421;51.412;5.432;2024-01-30T00:12:37;13.17;;;8.20;;
74064;SDS011;62421;51.412;5.432;2024-01-30T00:15:02;16.20;;;8.63;;
74064;SDS011;62421;51.412;5.432;2024-01-30T00:17:29;13.25;;;7.85;;
74064;SDS011;62421;51.412;5.432;2024-01-30T00:19:54;13.57;;;8.20;;
74064;SDS011;62421;51.412;5.432;2024-01-30T00:22:19;19.77;;;8.70;;
74064;SDS011;62421;51.412;5.432;2024-01-30T00:24:45;16.00;;;7.87;;
74064;SDS011;62421;51.412;5.432;2024-01-30T00:27:10;14.67;;;8.17;;
74064;SDS011;62421;51.412;5.432;2024-01-30T00:29:35;13.67;;;8.50;;
74064;SDS011;62421;51.412;5.432;2024-01-30T00:32:01;12.97;;;7.53;;
74064;SDS011;62421;51.412;5.432;2024-01-30T00:34:26;15.13;;;8.07;;
74064;SDS011;62421;51.412;5.432;2024-01-30T00:36:51;16.47;;;8.07;;
74064;SDS011;62421;51.412;5.432;2024-01-30T00:39:16;13.77;;;8.93;;
74064;SDS011;62421;51.412;5.432;2024-01-30T00:41:44;15.73;;;7.73;;
74064;SDS011;62421;51.412;5.432;2024-01-30T00:44:09;14.40;;;8.17;;
74064;SDS011;62421;51.412;5.432;2024-01-30T00:46:34;14.87;;;8.00;;
74064;SDS011;62421;51.412;5.432;2024-01-30T00:48:59;14.17;;;8.10;;
74064;SDS011;62421;51.412;5.432;2024-01-30T00:51:25;15.13;;;8.33;;
74064;SDS011;62421;51.412;5.432;2024-01-30T00:53:50;13.93;;;8.50;;
74064;SDS011;62421;51.412;5.432;2024-01-30T00:56:15;17.03;;;8.20;;
74064;SDS011;62421;51.412;5.432;2024-01-30T00:58:43;18.77;;;7.25;;
74064;SDS011;62421;51.412;5.432;2024-01-30T01:01:08;12.90;;;7.83;;
74064;SDS011;62421;51.412;5.432;2024-01-30T01:03:33;16.13;;;8.47;;
74064;SDS011;62421;51.412;5.432;2024-01-30T01:05:58;17.87;;;8.47;;
74064;SDS011;62421;51.412;5.432;2024-01-30T01:08:24;16.73;;;8.17;;
74064;SDS011;62421;51.412;5.432;2024-01-30T01:10:50;14.15;;;8.23;;
74064;SDS011;62421;51.412;5.432;2024-01-30T01:13:15;14.73;;;8.30;;
74064;SDS011;62421;51.412;5.432;2024-01-30T01:15:40;13.50;;;7.60;;
74064;SDS011;62421;51.412;5.432;2024-01-30T01:18:05;11.37;;;7.33;;
74064;SDS011;62421;51.412;5.432;2024-01-30T01:20:30;13.50;;;8.37;;
74064;SDS011;62421;51.412;5.432;2024-01-30T01:22:56;14.40;;;8.20;;
74064;SDS011;62421;51.412;5.432;2024-01-30T01:25:21;14.60;;;8.90;;
74064;SDS011;62421;51.412;5.432;2024-01-30T01:27:46;17.53;;;8.10;;
74064;SDS011;62421;51.412;5.432;2024-01-30T01:30:16;11.77;;;7.80;;
74064;SDS011;62421;51.412;5.432;2024-01-30T01:32:46;12.40;;;7.57;;
74064;SDS011;62421;51.412;5.432;2024-01-30T01:35:15;18.80;;;6.80;;
74064;SDS011;62421;51.412;5.432;2024-01-30T01:37:40;13.18;;;7.78;;
74064;SDS011;62421;51.412;5.432;2024-01-30T01:40:06;13.17;;;8.30;;
74064;SDS011;62421;51.412;5.432;2024-01-30T01:42:31;12.63;;;7.73;;
74064;SDS011;62421;51.412;5.432;2024-01-30T01:44:57;14.20;;;7.23;;
74064;SDS011;62421;51.412;5.432;2024-01-30T01:47:22;14.40;;;7.37;;
74064;SDS011;62421;51.412;5.432;2024-01-30T01:49:47;14.97;;;7.90;;
74064;SDS011;62421;51.412;5.432;2024-01-30T01:52:12;13.17;;;7.63;;
74064;SDS011;62421;51.412;5.432;2024-01-30T01:54:38;12.83;;;7.60;;
74064;SDS011;62421;51.412;5.432;2024-01-30T01:57:03;13.40;;;7.40;;
74064;SDS011;62421;51.412;5.432;2024-01-30T01:59:28;15.70;;;7.50;;
74064;SDS011;62421;51.412;5.432;2024-01-30T02:01:54;12.83;;;7.93;;
74064;SDS011;62421;51.412;5.432;2024-01-30T02:04:19;13.45;;;7.50;;
74064;SDS011;62421;51.412;5.432;2024-01-30T02:06:44;12.87;;;7.27;;
74064;SDS011;62421;51.412;5.432;2024-01-30T02:09:10;15.90;;;8.03;;
74064;SDS011;62421;51.412;5.432;2024-01-30T02:11:35;13.80;;;7.88;;
74064;SDS011;62421;51.412;5.432;2024-01-30T02:14:03;14.32;;;8.70;;
74064;SDS011;62421;51.412;5.432;2024-01-30T02:16:29;13.40;;;7.23;;
74064;SDS011;62421;51.412;5.432;2024-01-30T02:18:55;15.18;;;7.55;;
74064;SDS011;62421;51.412;5.432;2024-01-30T02:21:20;13.27;;;7.83;;
74064;SDS011;62421;51.412;5.432;2024-01-30T02:23:46;16.10;;;8.37;;
74064;SDS011;62421;51.412;5.432;2024-01-30T02:26:12;18.15;;;7.53;;
74064;SDS011;62421;51.412;5.432;2024-01-30T02:28:37;15.07;;;7.90;;
74064;SDS011;62421;51.412;5.432;2024-01-30T02:31:02;13.60;;;7.37;;
74064;SDS011;62421;51.412;5.432;2024-01-30T02:33:27;13.93;;;7.20;;
74064;SDS011;62421;51.412;5.432;2024-01-30T02:35:53;15.03;;;7.70;;
74064;SDS011;62421;51.412;5.432;2024-01-30T02:38:18;16.83;;;7.53;;
74064;SDS011;62421;51.412;5.432;2024-01-30T02:40:43;15.17;;;7.97;;
74064;SDS011;62421;51.412;5.432;2024-01-30T02:43:08;13.03;;;8.10;;
74064;SDS011;62421;51.412;5.432;2024-01-30T02:45:34;13.50;;;8.33;;
74064;SDS011;62421;51.412;5.432;2024-01-30T02:47:59;12.97;;;7.63;;
74064;SDS011;62421;51.412;5.432;2024-01-30T02:50:24;11.60;;;8.00;;
74064;SDS011;62421;51.412;5.432;2024-01-30T02:52:49;15.40;;;7.40;;
74064;SDS011;62421;51.412;5.432;2024-01-30T02:55:14;11.97;;;7.47;;
74064;SDS011;62421;51.412;5.432;2024-01-30T02:57:42;13.80;;;7.88;;
74064;SDS011;62421;51.412;5.432;2024-01-30T03:00:07;14.63;;;7.60;;
74064;SDS011;62421;51.412;5.432;2024-01-30T03:02:34;12.93;;;7.95;;
74064;SDS011;62421;51.412;5.432;2024-01-30T03:04:59;12.63;;;7.97;;
74064;SDS011;62421;51.412;5.432;2024-01-30T03:07:25;12.07;;;7.37;;
74064;SDS011;62421;51.412;5.432;2024-01-30T03:09:50;12.73;;;7.80;;
74064;SDS011;62421;51.412;5.432;2024-01-30T03:12:15;15.27;;;7.87;;
74064;SDS011;62421;51.412;5.432;2024-01-30T03:14:40;10.47;;;6.83;;
74064;SDS011;62421;51.412;5.432;2024-01-30T03:17:06;13.73;;;6.97;;
74064;SDS011;62421;51.412;5.432;2024-01-30T03:19:31;14.30;;;7.47;;
74064;SDS011;62421;51.412;5.432;2024-01-30T03:21:56;16.87;;;6.77;;
74064;SDS011;62421;51.412;5.432;2024-01-30T03:24:21;14.93;;;7.17;;
74064;SDS011;62421;51.412;5.432;2024-01-30T03:26:46;13.33;;;7.30;;
74064;SDS011;62421;51.412;5.432;2024-01-30T03:29:11;14.63;;;7.37;;
74064;SDS011;62421;51.412;5.432;2024-01-30T03:31:37;14.33;;;7.07;;
74064;SDS011;62421;51.412;5.432;2024-01-30T03:34:02;15.13;;;6.73;;
74064;SDS011;62421;51.412;5.432;2024-01-30T03:36:27;12.07;;;7.23;;
74064;SDS011;62421;51.412;5.432;2024-01-30T03:38:53;12.17;;;6.37;;
74064;SDS011;62421;51.412;5.432;2024-01-30T03:41:18;13.13;;;7.50;;
74064;SDS011;62421;51.412;5.432;2024-01-30T03:43:43;11.40;;;7.10;;
74064;SDS011;62421;51.412;5.432;2024-01-30T03:46:09;13.97;;;8.30;;
74064;SDS011;62421;51.412;5.432;2024-01-30T03:48:36;19.40;;;7.53;;
74064;SDS011;62421;51.412;5.432;2024-01-30T03:51:01;11.57;;;6.80;;
74064;SDS011;62421;51.412;5.432;2024-01-30T03:53:26;12.67;;;7.90;;
74064;SDS011;62421;51.412;5.432;2024-01-30T03:55:51;11.97;;;7.17;;
74064;SDS011;62421;51.412;5.432;2024-01-30T03:58:17;11.03;;;6.90;;
74064;SDS011;62421;51.412;5.432;2024-01-30T04:00:42;14.40;;;6.83;;
74064;SDS011;62421;51.412;5.432;2024-01-30T04:03:07;15.50;;;7.60;;
74064;SDS011;62421;51.412;5.432;2024-01-30T04:05:32;11.70;;;7.17;;
74064;SDS011;62421;51.412;5.432;2024-01-30T04:07:57;13.30;;;7.20;;
74064;SDS011;62421;51.412;5.432;2024-01-30T04:10:23;15.27;;;6.70;;
74064;SDS011;62421;51.412;5.432;2024-01-30T04:12:49;13.03;;;6.73;;
74064;SDS011;62421;51.412;5.432;2024-01-30T04:15:14;12.73;;;6.40;;
74064;SDS011;62421;51.412;5.432;2024-01-30T04:17:39;11.03;;;6.47;;
74064;SDS011;62421;51.412;5.432;2024-01-30T04:20:05;12.67;;;6.43;;
74064;SDS011;62421;51.412;5.432;2024-01-30T04:22:30;10.80;;;6.57;;
74064;SDS011;62421;51.412;5.432;2024-01-30T04:24:55;11.43;;;7.40;;
74064;SDS011;62421;51.412;5.432;2024-01-30T04:27:21;10.40;;;6.50;;
74064;SDS011;62421;51.412;5.432;2024-01-30T04:29:46;12.53;;;6.60;;
74064;SDS011;62421;51.412;5.432;2024-01-30T04:32:11;10.07;;;6.33;;
74064;SDS011;62421;51.412;5.432;2024-01-30T04:34:36;12.53;;;6.63;;
74064;SDS011;62421;51.412;5.432;2024-01-30T04:37:02;14.80;;;6.93;;
74064;SDS011;62421;51.412;5.432;2024-01-30T04:39:27;15.70;;;6.33;;
74064;SDS011;62421;51.412;5.432;2024-01-30T04:41:52;11.17;;;6.87;;
74064;SDS011;62421;51.412;5.432;2024-01-30T04:44:17;11.03;;;6.30;;
74064;SDS011;62421;51.412;5.432;2024-01-30T04:46:42;13.57;;;6.60;;
74064;SDS011;62421;51.412;5.432;2024-01-30T04:49:07;12.03;;;6.30;;
74064;SDS011;62421;51.412;5.432;2024-01-30T04:51:33;10.00;;;6.60;;
74064;SDS011;62421;51.412;5.432;2024-01-30T04:53:58;9.90;;;6.23;;
74064;SDS011;62421;51.412;5.432;2024-01-30T04:56:24;12.95;;;5.97;;
74064;SDS011;62421;51.412;5.432;2024-01-30T04:58:49;13.30;;;6.07;;
74064;SDS011;62421;51.412;5.432;2024-01-30T05:01:15;10.83;;;5.50;;
74064;SDS011;62421;51.412;5.432;2024-01-30T05:03:40;10.73;;;5.88;;
74064;SDS011;62421;51.412;5.432;2024-01-30T05:06:05;11.07;;;6.07;;
74064;SDS011;62421;51.412;5.432;2024-01-30T05:08:30;12.57;;;6.60;;
74064;SDS011;62421;51.412;5.432;2024-01-30T05:10:56;10.87;;;6.53;;
74064;SDS011;62421;51.412;5.432;2024-01-30T05:13:21;11.77;;;6.60;;
74064;SDS011;62421;51.412;5.432;2024-01-30T05:15:46;10.93;;;6.23;;
74064;SDS011;62421;51.412;5.432;2024-01-30T05:18:11;11.30;;;6.23;;
74064;SDS011;62421;51.412;5.432;2024-01-30T05:20:37;13.93;;;6.00;;
74064;SDS011;62421;51.412;5.432;2024-01-30T05:23:02;8.37;;;5.60;;
74064;SDS011;62421;51.412;5.432;2024-01-30T05:25:27;12.73;;;5.57;;
74064;SDS011;62421;51.412;5.432;2024-01-30T05:27:52;11.73;;;6.27;;
74064;SDS011;62421;51.412;5.432;2024-01-30T05:30:17;8.77;;;5.60;;
74064;SDS011;62421;51.412;5.432;2024-01-30T05:32:43;13.47;;;7.00;;
74064;SDS011;62421;51.412;5.432;2024-01-30T05:35:08;11.73;;;6.47;;
74064;SDS011;62421;51.412;5.432;2024-01-30T05:37:33;9.90;;;5.77;;
74064;SDS011;62421;51.412;5.432;2024-01-30T05:39:58;11.87;;;6.07;;
74064;SDS011;62421;51.412;5.432;2024-01-30T05:42:23;11.33;;;6.03;;
74064;SDS011;62421;51.412;5.432;2024-01-30T05:44:49;10.67;;;6.17;;
74064;SDS011;62421;51.412;5.432;2024-01-30T05:47:14;11.60;;;6.17;;
74064;SDS011;62421;51.412;5.432;2024-01-30T05:49:40;9.48;;;6.25;;
74064;SDS011;62421;51.412;5.432;2024-01-30T05:52:05;9.87;;;6.40;;
74064;SDS011;62421;51.412;5.432;2024-01-30T05:54:31;16.93;;;6.50;;
74064;SDS011;62421;51.412;5.432;2024-01-30T05:56:56;11.70;;;5.87;;
74064;SDS011;62421;51.412;5.432;2024-01-30T05:59:21;12.33;;;6.13;;
74064;SDS011;62421;51.412;5.432;2024-01-30T06:01:46;14.57;;;5.80;;
74064;SDS011;62421;51.412;5.432;2024-01-30T06:04:12;11.82;;;6.47;;
74064;SDS011;62421;51.412;5.432;2024-01-30T06:06:37;9.57;;;6.00;;
74064;SDS011;62421;51.412;5.432;2024-01-30T06:09:02;10.20;;;5.43;;
74064;SDS011;62421;51.412;5.432;2024-01-30T06:11:28;9.40;;;6.50;;
74064;SDS011;62421;51.412;5.432;2024-01-30T06:13:53;10.13;;;6.40;;
74064;SDS011;62421;51.412;5.432;2024-01-30T06:16:18;10.00;;;5.83;;
74064;SDS011;62421;51.412;5.432;2024-01-30T06:18:45;10.18;;;5.75;;
74064;SDS011;62421;51.412;5.432;2024-01-30T06:21:11;10.23;;;6.10;;
74064;SDS011;62421;51.412;5.432;2024-01-30T06:23:36;9.90;;;5.80;;
74064;SDS011;62421;51.412;5.432;2024-01-30T06:26:01;11.47;;;6.47;;
74064;SDS011;62421;51.412;5.432;2024-01-30T06:28:26;15.73;;;6.50;;
74064;SDS011;62421;51.412;5.432;2024-01-30T06:30:51;13.83;;;5.47;;
74064;SDS011;62421;51.412;5.432;2024-01-30T06:33:16;14.90;;;6.33;;
74064;SDS011;62421;51.412;5.432;2024-01-30T06:35:42;12.00;;;5.27;;
74064;SDS011;62421;51.412;5.432;2024-01-30T06:38:07;10.23;;;6.13;;
74064;SDS011;62421;51.412;5.432;2024-01-30T06:40:32;10.77;;;5.90;;
74064;SDS011;62421;51.412;5.432;2024-01-30T06:42:57;13.60;;;5.47;;
74064;SDS011;62421;51.412;5.432;2024-01-30T06:45:22;10.30;;;5.83;;
74064;SDS011;62421;51.412;5.432;2024-01-30T06:47:47;13.73;;;5.80;;
74064;SDS011;62421;51.412;5.432;2024-01-30T06:50:13;10.60;;;5.80;;
74064;SDS011;62421;51.412;5.432;2024-01-30T06:52:38;10.43;;;6.43;;
74064;SDS011;62421;51.412;5.432;2024-01-30T06:55:03;9.77;;;5.03;;
74064;SDS011;62421;51.412;5.432;2024-01-30T06:57:28;10.60;;;6.37;;
74064;SDS011;62421;51.412;5.432;2024-01-30T06:59:55;12.63;;;5.95;;
74064;SDS011;62421;51.412;5.432;2024-01-30T07:02:20;9.53;;;6.07;;
74064;SDS011;62421;51.412;5.432;2024-01-30T07:04:45;10.63;;;5.77;;
74064;SDS011;62421;51.412;5.432;2024-01-30T07:07:11;10.90;;;5.53;;
74064;SDS011;62421;51.412;5.432;2024-01-30T07:09:38;10.90;;;6.30;;
74064;SDS011;62421;51.412;5.432;2024-01-30T07:12:03;13.17;;;5.83;;
74064;SDS011;62421;51.412;5.432;2024-01-30T07:14:28;10.23;;;5.60;;
74064;SDS011;62421;51.412;5.432;2024-01-30T07:16:54;12.80;;;5.67;;
74064;SDS011;62421;51.412;5.432;2024-01-30T07:19:19;11.83;;;6.37;;
74064;SDS011;62421;51.412;5.432;2024-01-30T07:21:44;11.67;;;5.23;;
74064;SDS011;62421;51.412;5.432;2024-01-30T07:24:09;9.60;;;5.50;;
74064;SDS011;62421;51.412;5.432;2024-01-30T07:26:34;14.40;;;5.07;;
74064;SDS011;62421;51.412;5.432;2024-01-30T07:29:00;11.10;;;5.95;;
74064;SDS011;62421;51.412;5.432;2024-01-30T07:31:25;10.17;;;6.13;;
74064;SDS011;62421;51.412;5.432;2024-01-30T07:33:54;11.97;;;6.07;;
74064;SDS011;62421;51.412;5.432;2024-01-30T07:36:19;13.25;;;6.25;;
74064;SDS011;62421;51.412;5.432;2024-01-30T07:38:44;10.33;;;5.80;;
74064;SDS011;62421;51.412;5.432;2024-01-30T07:41:10;10.93;;;6.60;;
74064;SDS011;62421;51.412;5.432;2024-01-30T07:43:35;11.00;;;5.90;;
74064;SDS011;62421;51.412;5.432;2024-01-30T07:46:00;11.30;;;6.07;;
74064;SDS011;62421;51.412;5.432;2024-01-30T07:48:27;11.88;;;5.38;;
74064;SDS011;62421;51.412;5.432;2024-01-30T07:50:52;9.23;;;5.60;;
74064;SDS011;62421;51.412;5.432;2024-01-30T07:53:18;11.50;;;6.17;;
74064;SDS011;62421;51.412;5.432;2024-01-30T07:55:43;10.48;;;6.63;;
74064;SDS011;62421;51.412;5.432;2024-01-30T07:58:11;11.40;;;6.32;;
74064;SDS011;62421;51.412;5.432;2024-01-30T08:00:36;15.57;;;6.67;;
74064;SDS011;62421;51.412;5.432;2024-01-30T08:03:02;14.70;;;6.95;;
74064;SDS011;62421;51.412;5.432;2024-01-30T08:05:27;14.60;;;6.53;;
74064;SDS011;62421;51.412;5.432;2024-01-30T08:07:52;11.30;;;6.73;;
74064;SDS011;62421;51.412;5.432;2024-01-30T08:10:18;13.03;;;6.00;;
74064;SDS011;62421;51.412;5.432;2024-01-30T08:12:43;12.67;;;6.33;;
74064;SDS011;62421;51.412;5.432;2024-01-30T08:15:09;12.27;;;6.90;;
74064;SDS011;62421;51.412;5.432;2024-01-30T08:17:34;12.17;;;6.60;;
74064;SDS011;62421;51.412;5.432;2024-01-30T08:19:59;14.13;;;6.23;;
74064;SDS011;62421;51.412;5.432;2024-01-30T08:22:25;15.30;;;6.65;;
74064;SDS011;62421;51.412;5.432;2024-01-30T08:24:50;11.77;;;6.73;;
74064;SDS011;62421;51.412;5.432;2024-01-30T08:27:15;12.67;;;7.27;;
74064;SDS011;62421;51.412;5.432;2024-01-30T08:29:40;13.60;;;7.60;;
74064;SDS011;62421;51.412;5.432;2024-01-30T08:32:06;13.60;;;7.63;;
74064;SDS011;62421;51.412;5.432;2024-01-30T08:34:31;16.95;;;7.88;;
74064;SDS011;62421;51.412;5.432;2024-01-30T08:36:56;14.63;;;6.35;;
74064;SDS011;62421;51.412;5.432;2024-01-30T08:39:22;11.67;;;7.03;;
74064;SDS011;62421;51.412;5.432;2024-01-30T08:41:47;14.33;;;6.50;;
74064;SDS011;62421;51.412;5.432;2024-01-30T08:44:12;16.77;;;7.63;;
74064;SDS011;62421;51.412;5.432;2024-01-30T08:46:37;12.27;;;6.30;;
74064;SDS011;62421;51.412;5.432;2024-01-30T08:49:03;12.77;;;6.53;;
74064;SDS011;62421;51.412;5.432;2024-01-30T08:51:29;12.43;;;6.37;;
74064;SDS011;62421;51.412;5.432;2024-01-30T08:53:55;13.52;;;6.20;;
74064;SDS011;62421;51.412;5.432;2024-01-30T08:56:21;11.00;;;6.40;;
74064;SDS011;62421;51.412;5.432;2024-01-30T08:58:46;14.30;;;7.60;;
74064;SDS011;62421;51.412;5.432;2024-01-30T09:01:11;17.73;;;6.63;;
74064;SDS011;62421;51.412;5.432;2024-01-30T09:03:36;12.57;;;6.70;;
74064;SDS011;62421;51.412;5.432;2024-01-30T09:06:07;14.68;;;6.28;;
74064;SDS011;62421;51.412;5.432;2024-01-30T09:08:33;12.30;;;6.75;;
74064;SDS011;62421;51.412;5.432;2024-01-30T09:10:58;11.53;;;6.43;;
74064;SDS011;62421;51.412;5.432;2024-01-30T09:13:23;19.37;;;7.23;;
74064;SDS011;62421;51.412;5.432;2024-01-30T09:15:48;14.40;;;6.77;;
74064;SDS011;62421;51.412;5.432;2024-01-30T09:18:13;15.50;;;6.70;;
74064;SDS011;62421;51.412;5.432;2024-01-30T09:20:39;11.33;;;6.43;;
74064;SDS011;62421;51.412;5.432;2024-01-30T09:23:04;13.13;;;6.83;;
74064;SDS011;62421;51.412;5.432;2024-01-30T09:25:29;11.67;;;5.63;;
74064;SDS011;62421;51.412;5.432;2024-01-30T09:27:54;14.43;;;5.97;;
74064;SDS011;62421;51.412;5.432;2024-01-30T09:30:19;10.03;;;5.57;;
74064;SDS011;62421;51.412;5.432;2024-01-30T09:32:44;15.50;;;5.67;;
74064;SDS011;62421;51.412;5.432;2024-01-30T09:35:10;18.80;;;6.70;;
74064;SDS011;62421;51.412;5.432;2024-01-30T09:37:35;11.77;;;6.17;;
74064;SDS011;62421;51.412;5.432;2024-01-30T09:40:00;11.30;;;6.47;;
74064;SDS011;62421;51.412;5.432;2024-01-30T09:42:27;11.87;;;6.20;;
74064;SDS011;62421;51.412;5.432;2024-01-30T09:44:53;11.68;;;6.43;;
74064;SDS011;62421;51.412;5.432;2024-01-30T09:47:18;11.57;;;5.87;;
74064;SDS011;62421;51.412;5.432;2024-01-30T09:49:44;15.70;;;5.80;;
74064;SDS011;62421;51.412;5.432;2024-01-30T09:52:09;12.97;;;6.07;;
74064;SDS011;62421;51.412;5.432;2024-01-30T09:54:35;13.43;;;6.72;;
74064;SDS011;62421;51.412;5.432;2024-01-30T09:57:01;16.40;;;6.13;;
74064;SDS011;62421;51.412;5.432;2024-01-30T09:59:26;11.53;;;6.33;;
74064;SDS011;62421;51.412;5.432;2024-01-30T10:01:51;13.70;;;6.50;;
74064;SDS011;62421;51.412;5.432;2024-01-30T10:04:17;14.40;;;5.90;;
74064;SDS011;62421;51.412;5.432;2024-01-30T10:06:42;13.90;;;6.60;;
74064;SDS011;62421;51.412;5.432;2024-01-30T10:09:07;14.10;;;6.67;;
74064;SDS011;62421;51.412;5.432;2024-01-30T10:11:33;12.32;;;6.78;;
74064;SDS011;62421;51.412;5.432;2024-01-30T10:13:59;12.77;;;5.83;;
74064;SDS011;62421;51.412;5.432;2024-01-30T10:16:25;11.85;;;6.00;;
74064;SDS011;62421;51.412;5.432;2024-01-30T10:18:50;11.57;;;6.00;;
74064;SDS011;62421;51.412;5.432;2024-01-30T10:21:15;13.07;;;6.03;;
74064;SDS011;62421;51.412;5.432;2024-01-30T10:23:41;13.23;;;6.57;;
74064;SDS011;62421;51.412;5.432;2024-01-30T10:26:08;13.02;;;6.18;;
74064;SDS011;62421;51.412;5.432;2024-01-30T10:28:33;12.53;;;6.00;;
74064;SDS011;62421;51.412;5.432;2024-01-30T10:31:01;12.10;;;6.53;;
74064;SDS011;62421;51.412;5.432;2024-01-30T10:33:28;12.93;;;6.05;;
74064;SDS011;62421;51.412;5.432;2024-01-30T10:35:58;12.70;;;6.43;;
74064;SDS011;62421;51.412;5.432;2024-01-30T10:38:25;12.15;;;6.10;;
74064;SDS011;62421;51.412;5.432;2024-01-30T10:40:51;10.73;;;6.37;;
74064;SDS011;62421;51.412;5.432;2024-01-30T10:43:19;12.40;;;6.57;;
74064;SDS011;62421;51.412;5.432;2024-01-30T10:45:46;15.10;;;6.25;;
74064;SDS011;62421;51.412;5.432;2024-01-30T10:48:14;13.38;;;5.88;;
74064;SDS011;62421;51.412;5.432;2024-01-30T10:50:40;13.48;;;6.82;;
74064;SDS011;62421;51.412;5.432;2024-01-30T10:53:05;15.10;;;6.85;;
74064;SDS011;62421;51.412;5.432;2024-01-30T10:55:31;18.37;;;6.50;;
74064;SDS011;62421;51.412;5.432;2024-01-30T10:57:56;14.50;;;6.20;;
74064;SDS011;62421;51.412;5.432;2024-01-30T11:00:21;14.30;;;5.17;;
74064;SDS011;62421;51.412;5.432;2024-01-30T11:02:49;11.35;;;6.10;;
74064;SDS011;62421;51.412;5.432;2024-01-30T11:05:14;17.67;;;6.30;;
74064;SDS011;62421;51.412;5.432;2024-01-30T11:07:40;15.05;;;6.60;;
74064;SDS011;62421;51.412;5.432;2024-01-30T11:10:08;15.80;;;6.28;;
74064;SDS011;62421;51.412;5.432;2024-01-30T11:12:38;15.07;;;6.65;;
74064;SDS011;62421;51.412;5.432;2024-01-30T11:15:09;13.33;;;6.70;;
74064;SDS011;62421;51.412;5.432;2024-01-30T11:17:44;14.00;;;6.72;;
74064;SDS011;62421;51.412;5.432;2024-01-30T11:20:10;15.77;;;6.47;;
74064;SDS011;62421;51.412;5.432;2024-01-30T11:22:35;20.95;;;7.18;;
74064;SDS011;62421;51.412;5.432;2024-01-30T11:25:01;12.60;;;6.63;;
74064;SDS011;62421;51.412;5.432;2024-01-30T11:27:28;16.02;;;6.75;;
74064;SDS011;62421;51.412;5.432;2024-01-30T11:29:53;14.67;;;6.37;;
74064;SDS011;62421;51.412;5.432;2024-01-30T11:32:22;16.53;;;6.63;;
74064;SDS011;62421;51.412;5.432;2024-01-30T11:34:48;14.65;;;5.93;;
74064;SDS011;62421;51.412;5.432;2024-01-30T11:37:14;13.75;;;6.57;;
74064;SDS011;62421;51.412;5.432;2024-01-30T11:39:40;13.82;;;6.20;;
74064;SDS011;62421;51.412;5.432;2024-01-30T11:42:06;17.10;;;6.00;;
74064;SDS011;62421;51.412;5.432;2024-01-30T11:44:33;13.50;;;5.45;;
74064;SDS011;62421;51.412;5.432;2024-01-30T11:46:59;10.30;;;5.13;;
74064;SDS011;62421;51.412;5.432;2024-01-30T11:49:24;13.20;;;5.33;;
74064;SDS011;62421;51.412;5.432;2024-01-30T11:51:49;15.10;;;5.40;;
74064;SDS011;62421;51.412;5.432;2024-01-30T11:54:15;12.27;;;5.33;;
74064;SDS011;62421;51.412;5.432;2024-01-30T11:56:41;15.75;;;6.38;;
74064;SDS011;62421;51.412;5.432;2024-01-30T11:59:06;11.32;;;5.45;;
74064;SDS011;62421;51.412;5.432;2024-01-30T12:01:31;11.53;;;5.37;;
74064;SDS011;62421;51.412;5.432;2024-01-30T12:03:58;11.25;;;5.38;;
74064;SDS011;62421;51.412;5.432;2024-01-30T12:06:23;9.98;;;4.72;;
74064;SDS011;62421;51.412;5.432;2024-01-30T12:09:01;11.07;;;3.97;;
74064;SDS011;62421;51.412;5.432;2024-01-30T12:11:29;14.13;;;4.87;;
74064;SDS011;62421;51.412;5.432;2024-01-30T12:13:55;14.90;;;4.70;;
74064;SDS011;62421;51.412;5.432;2024-01-30T12:16:20;8.13;;;4.63;;
74064;SDS011;62421;51.412;5.432;2024-01-30T12:18:46;16.35;;;5.80;;
74064;SDS011;62421;51.412;5.432;2024-01-30T12:21:11;9.80;;;5.17;;
74064;SDS011;62421;51.412;5.432;2024-01-30T12:23:36;12.63;;;5.30;;
74064;SDS011;62421;51.412;5.432;2024-01-30T12:26:01;12.03;;;6.30;;
74064;SDS011;62421;51.412;5.432;2024-01-30T12:28:28;21.13;;;5.87;;
74064;SDS011;62421;51.412;5.432;2024-01-30T12:30:56;16.30;;;5.88;;
74064;SDS011;62421;51.412;5.432;2024-01-30T12:33:26;9.93;;;4.28;;
74064;SDS011;62421;51.412;5.432;2024-01-30T12:35:52;17.08;;;5.63;;
74064;SDS011;62421;51.412;5.432;2024-01-30T12:38:17;9.97;;;3.67;;
74064;SDS011;62421;51.412;5.432;2024-01-30T12:40:42;7.07;;;3.70;;
74064;SDS011;62421;51.412;5.432;2024-01-30T12:43:08;9.47;;;3.87;;
74064;SDS011;62421;51.412;5.432;2024-01-30T12:45:33;9.83;;;3.20;;
74064;SDS011;62421;51.412;5.432;2024-01-30T12:47:58;7.00;;;3.40;;
74064;SDS011;62421;51.412;5.432;2024-01-30T12:50:23;7.23;;;3.03;;
74064;SDS011;62421;51.412;5.432;2024-01-30T12:52:49;7.63;;;2.30;;
74064;SDS011;62421;51.412;5.432;2024-01-30T12:55:14;4.53;;;1.70;;
74064;SDS011;62421;51.412;5.432;2024-01-30T12:57:39;6.03;;;1.90;;
74064;SDS011;62421;51.412;5.432;2024-01-30T13:00:05;4.50;;;1.50;;
74064;SDS011;62421;51.412;5.432;2024-01-30T13:02:33;3.85;;;1.33;;
74064;SDS011;62421;51.412;5.432;2024-01-30T13:05:01;3.40;;;1.42;;
74064;SDS011;62421;51.412;5.432;2024-01-30T13:07:26;5.00;;;1.07;;
74064;SDS011;62421;51.412;5.432;2024-01-30T13:09:52;6.80;;;1.10;;
74064;SDS011;62421;51.412;5.432;2024-01-30T13:12:17;3.77;;;1.60;;
74064;SDS011;62421;51.412;5.432;2024-01-30T13:14:42;5.50;;;1.40;;
74064;SDS011;62421;51.412;5.432;2024-01-30T13:17:08;8.17;;;1.77;;
74064;SDS011;62421;51.412;5.432;2024-01-30T13:19:33;6.60;;;1.17;;
74064;SDS011;62421;51.412;5.432;2024-01-30T13:21:58;3.90;;;1.57;;
74064;SDS011;62421;51.412;5.432;2024-01-30T13:24:23;3.00;;;1.20;;
74064;SDS011;62421;51.412;5.432;2024-01-30T13:26:48;3.30;;;1.00;;
74064;SDS011;62421;51.412;5.432;2024-01-30T13:29:14;5.07;;;1.43;;
74064;SDS011;62421;51.412;5.432;2024-01-30T13:31:39;4.50;;;1.50;;
74064;SDS011;62421;51.412;5.432;2024-01-30T13:34:04;3.80;;;1.50;;
74064;SDS011;62421;51.412;5.432;2024-01-30T13:36:31;14.60;;;1.50;;
74064;SDS011;62421;51.412;5.432;2024-01-30T13:38:56;5.60;;;1.80;;
74064;SDS011;62421;51.412;5.432;2024-01-30T13:41:21;4.43;;;1.20;;
74064;SDS011;62421;51.412;5.432;2024-01-30T13:43:47;7.78;;;2.15;;
74064;SDS011;62421;51.412;5.432;2024-01-30T13:46:13;4.17;;;0.93;;
74064;SDS011;62421;51.412;5.432;2024-01-30T13:48:38;3.83;;;1.67;;
74064;SDS011;62421;51.412;5.432;2024-01-30T13:51:03;4.23;;;1.87;;
74064;SDS011;62421;51.412;5.432;2024-01-30T13:53:28;2.80;;;1.40;;
74064;SDS011;62421;51.412;5.432;2024-01-30T13:55:53;6.43;;;2.20;;
74064;SDS011;62421;51.412;5.432;2024-01-30T13:58:19;3.80;;;1.77;;
74064;SDS011;62421;51.412;5.432;2024-01-30T14:00:44;3.03;;;1.87;;
74064;SDS011;62421;51.412;5.432;2024-01-30T14:03:09;8.70;;;2.03;;
74064;SDS011;62421;51.412;5.432;2024-01-30T14:05:34;5.47;;;1.70;;
74064;SDS011;62421;51.412;5.432;2024-01-30T14:08:00;3.83;;;1.60;;
74064;SDS011;62421;51.412;5.432;2024-01-30T14:10:26;5.20;;;1.20;;
74064;SDS011;62421;51.412;5.432;2024-01-30T14:12:51;7.05;;;1.35;;
74064;SDS011;62421;51.412;5.432;2024-01-30T14:15:16;6.70;;;2.40;;
74064;SDS011;62421;51.412;5.432;2024-01-30T14:17:45;6.68;;;1.50;;
74064;SDS011;62421;51.412;5.432;2024-01-30T14:20:10;2.50;;;1.20;;
74064;SDS011;62421;51.412;5.432;2024-01-30T14:22:36;10.17;;;1.97;;
74064;SDS011;62421;51.412;5.432;2024-01-30T14:25:01;6.93;;;1.80;;